Time;durP1;ratioP1;P1;durP2;ratioP2;P2;SDS_P1;SDS_P2;PMS_P1;PMS_P2;Temp;Humidity;BMP_temperature;BMP_pressure;BME280_temperature;BME280_humidity;BME280_pressure;Samples;Min_cycle;Max_cycle;Signal;HPM_P1;HPM_P2
2023/12/25 00:00:35;;;;;;;28.13;3.80;;;;;;;;;;4973516;28;93447;-68
2023/12/25 00:03:02;;;;;;;21.27;3.03;;;;;;;;;;4966500;28;92552;-65
2023/12/25 00:05:28;;;;;;;14.20;2.75;;;;;;;;;;4971487;28;93338;-65
2023/12/25 00:07:55;;;;;;;24.38;3.95;;;;;;;;;;4975406;28;94402;-67
2023/12/25 00:10:22;;;;;;;26.08;5.22;;;;;;;;;;4969661;28;92502;-67
2023/12/25 00:12:48;;;;;;;21.52;3.13;;;;;;;;;;4968450;28;93710;-68
2023/12/25 00:15:15;;;;;;;22.40;3.35;;;;;;;;;;4970547;28;92017;-67
2023/12/25 00:17:41;;;;;;;19.30;3.15;;;;;;;;;;4969407;28;93540;-66
2023/12/25 00:20:10;;;;;;;18.50;3.65;;;;;;;;;;4973499;28;92540;-64
2023/12/25 00:22:37;;;;;;;22.65;3.55;;;;;;;;;;4972204;28;94887;-65
2023/12/25 00:25:03;;;;;;;26.17;3.72;;;;;;;;;;4973206;28;98761;-65
2023/12/25 00:27:29;;;;;;;18.58;3.10;;;;;;;;;;4974391;28;95221;-65
2023/12/25 00:29:56;;;;;;;16.35;2.75;;;;;;;;;;4974857;28;93896;-66
2023/12/25 00:32:22;;;;;;;14.80;2.60;;;;;;;;;;4968630;28;93248;-65
2023/12/25 00:34:49;;;;;;;14.63;2.53;;;;;;;;;;4974673;28;92555;-65
2023/12/25 00:37:16;;;;;;;12.23;1.92;;;;;;;;;;4974904;28;94217;-63
2023/12/25 00:39:42;;;;;;;13.65;2.10;;;;;;;;;;4964885;28;94072;-65
2023/12/25 00:42:09;;;;;;;15.10;1.95;;;;;;;;;;4967336;28;92444;-66
2023/12/25 00:44:35;;;;;;;11.48;2.58;;;;;;;;;;4968427;28;93467;-65
2023/12/25 00:47:02;;;;;;;7.07;1.30;;;;;;;;;;4971549;28;95826;-65
2023/12/25 00:49:28;;;;;;;5.47;1.30;;;;;;;;;;4974655;28;92449;-66
2023/12/25 00:51:54;;;;;;;5.78;0.95;;;;;;;;;;4965687;28;93368;-65
2023/12/25 00:54:21;;;;;;;11.05;1.65;;;;;;;;;;4972411;28;93429;-65
2023/12/25 00:56:47;;;;;;;4.50;1.45;;;;;;;;;;4970581;28;93201;-65
2023/12/25 00:59:14;;;;;;;9.32;1.42;;;;;;;;;;4964261;28;93753;-65
2023/12/25 01:01:40;;;;;;;16.02;2.75;;;;;;;;;;4969991;28;92700;-65
2023/12/25 01:04:07;;;;;;;12.93;2.35;;;;;;;;;;4965253;28;94778;-65
2023/12/25 01:06:33;;;;;;;13.05;2.50;;;;;;;;;;4965415;28;93778;-65
2023/12/25 01:08:59;;;;;;;20.52;3.47;;;;;;;;;;4966449;28;92613;-65
2023/12/25 01:11:26;;;;;;;18.33;2.97;;;;;;;;;;4965206;28;94810;-65
2023/12/25 01:13:52;;;;;;;21.65;3.13;;;;;;;;;;4970047;28;93523;-65
2023/12/25 01:16:19;;;;;;;23.35;3.53;;;;;;;;;;4970230;28;93159;-65
2023/12/25 01:18:45;;;;;;;18.23;3.55;;;;;;;;;;4967344;28;93827;-65
2023/12/25 01:21:11;;;;;;;24.25;3.88;;;;;;;;;;4967491;28;92468;-65
2023/12/25 01:23:38;;;;;;;21.48;3.45;;;;;;;;;;4986061;28;94543;-65
2023/12/25 01:26:04;;;;;;;20.88;3.35;;;;;;;;;;4965528;28;94456;-66
2023/12/25 01:28:30;;;;;;;17.80;3.92;;;;;;;;;;4970815;28;91795;-65
2023/12/25 01:30:57;;;;;;;25.42;3.30;;;;;;;;;;4971373;28;93448;-65
2023/12/25 01:33:23;;;;;;;28.10;4.25;;;;;;;;;;4970516;28;93894;-65
2023/12/25 01:35:50;;;;;;;20.08;3.20;;;;;;;;;;4971716;28;94934;-65
2023/12/25 01:38:16;;;;;;;25.63;3.28;;;;;;;;;;4965630;28;95076;-66
2023/12/25 01:40:43;;;;;;;21.98;3.47;;;;;;;;;;4966765;28;92431;-65
2023/12/25 01:43:09;;;;;;;20.50;3.45;;;;;;;;;;4972665;28;93328;-65
2023/12/25 01:45:36;;;;;;;17.00;2.75;;;;;;;;;;4971202;28;93467;-65
2023/12/25 01:48:02;;;;;;;14.20;2.63;;;;;;;;;;4970826;28;92433;-66
2023/12/25 01:50:30;;;;;;;13.13;1.80;;;;;;;;;;4965375;28;94083;-65
2023/12/25 01:52:56;;;;;;;8.18;2.10;;;;;;;;;;4970782;28;93527;-65
2023/12/25 01:55:23;;;;;;;11.13;1.60;;;;;;;;;;4963132;28;92532;-65
2023/12/25 01:57:49;;;;;;;14.75;1.92;;;;;;;;;;4975509;28;95105;-65
2023/12/25 02:00:16;;;;;;;9.27;1.77;;;;;;;;;;4969367;28;95062;-65
2023/12/25 02:02:42;;;;;;;9.52;1.70;;;;;;;;;;4969867;28;95783;-65
2023/12/25 02:05:09;;;;;;;7.32;1.85;;;;;;;;;;4965738;28;93388;-65
2023/12/25 02:07:39;;;;;;;8.43;1.17;;;;;;;;;;4972187;28;92586;-65
2023/12/25 02:10:08;;;;;;;7.13;1.27;;;;;;;;;;4969128;28;93479;-65
2023/12/25 02:12:35;;;;;;;5.15;1.15;;;;;;;;;;4969065;28;93828;-65
2023/12/25 02:15:04;;;;;;;9.80;2.00;;;;;;;;;;4966091;28;92487;-65
2023/12/25 02:17:31;;;;;;;5.85;1.00;;;;;;;;;;4969395;28;93163;-65
2023/12/25 02:19:58;;;;;;;5.65;1.20;;;;;;;;;;4972559;28;93380;-65
2023/12/25 02:22:24;;;;;;;14.40;2.03;;;;;;;;;;4969866;28;94099;-65
2023/12/25 02:24:55;;;;;;;14.77;2.00;;;;;;;;;;4968548;28;95810;-65
2023/12/25 02:27:21;;;;;;;13.43;2.70;;;;;;;;;;4965213;28;92596;-65
2023/12/25 02:29:48;;;;;;;18.92;3.20;;;;;;;;;;4971799;28;94158;-66
2023/12/25 02:32:14;;;;;;;17.40;3.10;;;;;;;;;;4972224;28;93507;-65
2023/12/25 02:34:43;;;;;;;17.10;3.17;;;;;;;;;;4967694;28;92626;-65
2023/12/25 02:37:10;;;;;;;25.08;3.20;;;;;;;;;;4971502;28;93547;-66
2023/12/25 02:39:36;;;;;;;20.98;2.40;;;;;;;;;;4967574;28;93727;-66
2023/12/25 02:42:02;;;;;;;20.00;3.70;;;;;;;;;;4972969;28;91864;-65
2023/12/25 02:44:29;;;;;;;21.35;3.45;;;;;;;;;;4968464;28;93440;-65
2023/12/25 02:46:55;;;;;;;22.77;3.20;;;;;;;;;;4964747;28;92552;-65
2023/12/25 02:49:22;;;;;;;23.30;3.25;;;;;;;;;;4969891;28;94915;-66
2023/12/25 02:51:48;;;;;;;27.40;3.25;;;;;;;;;;4970804;28;93480;-66
2023/12/25 02:54:15;;;;;;;16.35;2.92;;;;;;;;;;4969039;28;92695;-66
2023/12/25 02:56:41;;;;;;;19.15;3.35;;;;;;;;;;4970973;28;94265;-66
2023/12/25 02:59:07;;;;;;;21.30;3.35;;;;;;;;;;4972127;28;93491;-65
2023/12/25 03:01:34;;;;;;;23.08;2.92;;;;;;;;;;4972468;28;92657;-65
2023/12/25 03:04:00;;;;;;;21.08;3.47;;;;;;;;;;4965004;28;93088;-65
2023/12/25 03:06:26;;;;;;;20.92;3.33;;;;;;;;;;4972147;28;92291;-65
2023/12/25 03:08:53;;;;;;;25.10;2.85;;;;;;;;;;4972843;28;92507;-65
2023/12/25 03:11:19;;;;;;;21.20;3.03;;;;;;;;;;4969977;28;94911;-65
2023/12/25 03:13:46;;;;;;;18.52;2.72;;;;;;;;;;4970539;28;95280;-66
2023/12/25 03:16:12;;;;;;;20.55;2.83;;;;;;;;;;4967849;28;95154;-65
2023/12/25 03:18:38;;;;;;;18.48;3.00;;;;;;;;;;4971660;28;93452;-65
2023/12/25 03:21:05;;;;;;;19.50;3.55;;;;;;;;;;4968447;28;92694;-65
2023/12/25 03:23:32;;;;;;;18.35;2.83;;;;;;;;;;4971673;28;94189;-65
2023/12/25 03:25:59;;;;;;;20.00;2.80;;;;;;;;;;4967886;28;92659;-65
2023/12/25 03:28:27;;;;;;;21.67;3.15;;;;;;;;;;4968474;28;93213;-65
2023/12/25 03:30:54;;;;;;;20.30;2.83;;;;;;;;;;4974283;28;92817;-65
2023/12/25 03:33:21;;;;;;;19.35;2.80;;;;;;;;;;4971692;28;92713;-64
2023/12/25 03:35:48;;;;;;;18.65;2.72;;;;;;;;;;4974434;28;93150;-65
2023/12/25 03:38:14;;;;;;;23.38;3.33;;;;;;;;;;4969905;28;96361;-65
2023/12/25 03:40:40;;;;;;;19.98;3.22;;;;;;;;;;4975179;28;92702;-65
2023/12/25 03:43:07;;;;;;;15.48;3.00;;;;;;;;;;4969751;28;93154;-66
2023/12/25 03:45:33;;;;;;;20.13;2.60;;;;;;;;;;4975278;28;93709;-65
2023/12/25 03:47:59;;;;;;;29.73;2.95;;;;;;;;;;4971907;28;94495;-65
2023/12/25 03:50:26;;;;;;;18.10;3.08;;;;;;;;;;4970656;28;92610;-65
2023/12/25 03:52:53;;;;;;;27.55;4.05;;;;;;;;;;4972945;28;92519;-65
2023/12/25 03:55:19;;;;;;;28.30;3.92;;;;;;;;;;4974178;28;93210;-65
2023/12/25 03:57:45;;;;;;;31.85;3.80;;;;;;;;;;4971325;28;93738;-66
2023/12/25 04:00:12;;;;;;;16.48;2.90;;;;;;;;;;4968825;28;92612;-65
2023/12/25 04:02:38;;;;;;;28.45;3.45;;;;;;;;;;4970042;28;94968;-65
2023/12/25 04:05:06;;;;;;;22.75;3.42;;;;;;;;;;4967472;28;93559;-65
2023/12/25 04:07:32;;;;;;;24.23;3.45;;;;;;;;;;4978436;28;92681;-65
2023/12/25 04:09:59;;;;;;;18.38;3.03;;;;;;;;;;4969122;28;94411;-65
2023/12/25 04:12:25;;;;;;;17.92;3.40;;;;;;;;;;4973967;28;92785;-66
2023/12/25 04:14:51;;;;;;;23.42;3.40;;;;;;;;;;4974331;28;93475;-65
2023/12/25 04:17:18;;;;;;;27.80;4.13;;;;;;;;;;4970680;28;93897;-65
2023/12/25 04:19:44;;;;;;;26.85;4.28;;;;;;;;;;4970635;28;91769;-65
2023/12/25 04:22:13;;;;;;;28.92;3.65;;;;;;;;;;4974758;28;92910;-65
2023/12/25 04:24:39;;;;;;;19.45;3.47;;;;;;;;;;4973974;28;93737;-65
2023/12/25 04:27:06;;;;;;;20.83;2.88;;;;;;;;;;4967925;28;94854;-65
2023/12/25 04:29:32;;;;;;;18.35;3.05;;;;;;;;;;4977133;28;96694;-65
2023/12/25 04:31:58;;;;;;;22.17;3.50;;;;;;;;;;4974482;28;92664;-66
2023/12/25 04:34:25;;;;;;;23.40;3.53;;;;;;;;;;4968884;28;94345;-65
2023/12/25 04:36:51;;;;;;;19.65;2.83;;;;;;;;;;4969828;28;92542;-65
2023/12/25 04:39:18;;;;;;;22.50;3.20;;;;;;;;;;4967596;28;92462;-65
2023/12/25 04:41:44;;;;;;;19.40;3.42;;;;;;;;;;4968738;28;93524;-65
2023/12/25 04:44:10;;;;;;;18.67;3.45;;;;;;;;;;4973208;28;92829;-64
2023/12/25 04:46:39;;;;;;;17.45;2.70;;;;;;;;;;4973963;28;92627;-64
2023/12/25 04:49:06;;;;;;;21.60;3.45;;;;;;;;;;4975012;28;92377;-64
2023/12/25 04:51:33;;;;;;;12.80;2.92;;;;;;;;;;4975140;28;95674;-63
2023/12/25 04:53:59;;;;;;;18.25;3.00;;;;;;;;;;4973892;28;95397;-64
2023/12/25 04:56:25;;;;;;;16.98;2.92;;;;;;;;;;4974248;28;93627;-64
2023/12/25 04:58:52;;;;;;;18.08;2.70;;;;;;;;;;4968155;28;92518;-64
2023/12/25 05:01:18;;;;;;;18.60;3.00;;;;;;;;;;4972309;28;93090;-64
2023/12/25 05:03:45;;;;;;;19.67;3.05;;;;;;;;;;4970043;28;94378;-64
2023/12/25 05:06:11;;;;;;;29.17;2.95;;;;;;;;;;4970671;28;92889;-64
2023/12/25 05:08:38;;;;;;;16.90;2.63;;;;;;;;;;4971141;28;93131;-64
2023/12/25 05:11:04;;;;;;;19.20;3.10;;;;;;;;;;4968972;28;92900;-64
2023/12/25 05:13:30;;;;;;;16.52;2.67;;;;;;;;;;4977144;28;92411;-63
2023/12/25 05:15:57;;;;;;;16.75;2.90;;;;;;;;;;4967294;28;96010;-64
2023/12/25 05:18:23;;;;;;;15.00;2.42;;;;;;;;;;4969575;28;92409;-64
2023/12/25 05:20:50;;;;;;;15.43;2.72;;;;;;;;;;4971453;28;93393;-64
2023/12/25 05:23:16;;;;;;;15.50;3.20;;;;;;;;;;4972858;28;93699;-63
2023/12/25 05:25:43;;;;;;;13.40;2.05;;;;;;;;;;4970532;28;92548;-64
2023/12/25 05:28:09;;;;;;;19.55;2.90;;;;;;;;;;4968432;28;93144;-64
2023/12/25 05:30:35;;;;;;;11.02;2.42;;;;;;;;;;4970406;28;93928;-63
2023/12/25 05:33:02;;;;;;;15.00;2.50;;;;;;;;;;4971077;28;91843;-63
2023/12/25 05:35:29;;;;;;;12.48;3.00;;;;;;;;;;4972214;28;93787;-64
2023/12/25 05:37:55;;;;;;;12.95;1.85;;;;;;;;;;4968978;28;93250;-64
2023/12/25 05:40:22;;;;;;;16.55;2.55;;;;;;;;;;4967934;28;94880;-64
2023/12/25 05:42:48;;;;;;;15.60;2.40;;;;;;;;;;4972059;28;93881;-64
2023/12/25 05:45:15;;;;;;;12.27;2.35;;;;;;;;;;4971235;28;92449;-63
2023/12/25 05:47:41;;;;;;;14.43;2.05;;;;;;;;;;4974021;28;93149;-64
2023/12/25 05:50:08;;;;;;;18.90;3.03;;;;;;;;;;4973207;28;93478;-64
2023/12/25 05:52:34;;;;;;;14.70;2.17;;;;;;;;;;4972574;28;92561;-63
2023/12/25 05:55:00;;;;;;;12.05;2.20;;;;;;;;;;4974746;28;94085;-64
2023/12/25 05:57:28;;;;;;;10.43;2.20;;;;;;;;;;4970144;28;91990;-64
2023/12/25 05:59:54;;;;;;;22.48;2.30;;;;;;;;;;4971790;28;93752;-64
2023/12/25 06:02:21;;;;;;;11.40;1.88;;;;;;;;;;4972055;28;94420;-63
2023/12/25 06:04:47;;;;;;;18.58;2.03;;;;;;;;;;4972087;28;94909;-64
2023/12/25 06:07:13;;;;;;;13.18;1.52;;;;;;;;;;4968090;28;95526;-64
2023/12/25 06:09:40;;;;;;;11.43;1.52;;;;;;;;;;4972075;28;93765;-64
2023/12/25 06:12:06;;;;;;;11.48;1.73;;;;;;;;;;4974714;28;93455;-64
2023/12/25 06:14:33;;;;;;;15.52;2.10;;;;;;;;;;4969398;28;93307;-64
2023/12/25 06:17:00;;;;;;;10.50;1.55;;;;;;;;;;4971739;28;93478;-64
2023/12/25 06:19:26;;;;;;;14.80;2.20;;;;;;;;;;4971795;28;93457;-64
2023/12/25 06:21:52;;;;;;;13.77;1.95;;;;;;;;;;4969758;28;92506;-64
2023/12/25 06:24:19;;;;;;;5.78;1.33;;;;;;;;;;4973070;28;92612;-64
2023/12/25 06:26:45;;;;;;;7.65;1.40;;;;;;;;;;4972813;28;94083;-64
2023/12/25 06:29:12;;;;;;;7.10;1.20;;;;;;;;;;4965624;28;95822;-64
2023/12/25 06:31:38;;;;;;;9.27;1.40;;;;;;;;;;4972710;28;92506;-64
2023/12/25 06:34:04;;;;;;;13.85;2.03;;;;;;;;;;4973059;28;92454;-64
2023/12/25 06:36:31;;;;;;;6.97;1.50;;;;;;;;;;4965625;28;93411;-64
2023/12/25 06:38:57;;;;;;;11.15;1.60;;;;;;;;;;4970791;28;92486;-64
2023/12/25 06:41:24;;;;;;;13.77;1.40;;;;;;;;;;4971928;28;93566;-63
2023/12/25 06:43:50;;;;;;;7.55;1.70;;;;;;;;;;4973078;28;94323;-63
2023/12/25 06:46:17;;;;;;;7.90;1.40;;;;;;;;;;4972331;28;92100;-64
2023/12/25 06:48:43;;;;;;;7.90;1.20;;;;;;;;;;4966442;28;94201;-63
2023/12/25 06:51:10;;;;;;;6.53;1.02;;;;;;;;;;4984318;28;92809;-64
2023/12/25 06:53:36;;;;;;;8.85;2.25;;;;;;;;;;4968631;28;94994;-63
2023/12/25 06:56:03;;;;;;;4.25;1.10;;;;;;;;;;4965699;28;93909;-64
2023/12/25 06:58:30;;;;;;;9.20;1.65;;;;;;;;;;4967183;28;92514;-64
2023/12/25 07:00:56;;;;;;;6.90;1.00;;;;;;;;;;4970894;28;93723;-65
2023/12/25 07:03:22;;;;;;;5.75;1.38;;;;;;;;;;4971102;28;93203;-64
2023/12/25 07:05:49;;;;;;;7.13;1.20;;;;;;;;;;4971702;28;94216;-66
2023/12/25 07:08:16;;;;;;;5.95;1.23;;;;;;;;;;4969066;28;93823;-65
2023/12/25 07:10:43;;;;;;;4.78;1.00;;;;;;;;;;4969579;28;91764;-66
2023/12/25 07:13:09;;;;;;;2.95;0.68;;;;;;;;;;4971995;28;92526;-66
2023/12/25 07:15:38;;;;;;;5.47;1.30;;;;;;;;;;4971193;28;93372;-65
2023/12/25 07:18:06;;;;;;;5.00;1.10;;;;;;;;;;4968728;28;94958;-65
2023/12/25 07:20:32;;;;;;;6.72;1.38;;;;;;;;;;4974589;28;95688;-65
2023/12/25 07:22:59;;;;;;;7.68;1.20;;;;;;;;;;4968434;28;92324;-66
2023/12/25 07:25:25;;;;;;;3.33;0.80;;;;;;;;;;4969368;28;95213;-65
2023/12/25 07:27:52;;;;;;;12.07;1.45;;;;;;;;;;4969731;28;92725;-65
2023/12/25 07:30:18;;;;;;;7.88;1.30;;;;;;;;;;4964685;28;92456;-65
2023/12/25 07:32:46;;;;;;;6.75;1.30;;;;;;;;;;4966314;28;92864;-65
2023/12/25 07:35:13;;;;;;;6.75;1.48;;;;;;;;;;4968714;28;92995;-65
2023/12/25 07:37:39;;;;;;;5.68;1.40;;;;;;;;;;4967799;28;92529;-65
2023/12/25 07:40:06;;;;;;;9.70;1.83;;;;;;;;;;4964050;28;93390;-65
2023/12/25 07:42:32;;;;;;;5.25;1.45;;;;;;;;;;4970488;28;95888;-65
2023/12/25 07:44:59;;;;;;;6.05;1.65;;;;;;;;;;4964260;28;95584;-65
2023/12/25 07:47:26;;;;;;;10.27;1.58;;;;;;;;;;4967398;28;93509;-66
2023/12/25 07:49:52;;;;;;;8.07;1.33;;;;;;;;;;4963984;28;92542;-65
2023/12/25 07:52:19;;;;;;;8.00;1.13;;;;;;;;;;4967961;28;93035;-66
2023/12/25 07:54:45;;;;;;;6.43;1.48;;;;;;;;;;4968502;28;94193;-65
2023/12/25 07:57:12;;;;;;;9.05;1.38;;;;;;;;;;4969782;28;92520;-65
2023/12/25 07:59:38;;;;;;;8.65;1.60;;;;;;;;;;4965788;28;93118;-65
2023/12/25 08:02:04;;;;;;;5.85;1.27;;;;;;;;;;4970590;28;93311;-64
2023/12/25 08:04:31;;;;;;;16.55;1.95;;;;;;;;;;4974938;28;92487;-65
2023/12/25 08:06:57;;;;;;;9.75;1.35;;;;;;;;;;4964530;28;95820;-65
2023/12/25 08:09:24;;;;;;;5.80;1.85;;;;;;;;;;4968078;28;92952;-65
2023/12/25 08:11:50;;;;;;;13.55;1.45;;;;;;;;;;4963805;28;94160;-65
2023/12/25 08:14:16;;;;;;;8.85;1.90;;;;;;;;;;4970039;28;94121;-64
2023/12/25 08:16:43;;;;;;;9.02;1.55;;;;;;;;;;4973400;28;92541;-64
2023/12/25 08:19:09;;;;;;;12.32;2.10;;;;;;;;;;4974300;28;93065;-65
2023/12/25 08:21:36;;;;;;;4.57;1.42;;;;;;;;;;4974506;28;94437;-64
2023/12/25 08:24:02;;;;;;;8.68;1.88;;;;;;;;;;4969660;28;91877;-65
2023/12/25 08:26:29;;;;;;;11.10;1.65;;;;;;;;;;4973857;28;92550;-65
2023/12/25 08:28:55;;;;;;;8.43;1.45;;;;;;;;;;4970187;28;93038;-66
2023/12/25 08:31:21;;;;;;;12.85;2.00;;;;;;;;;;4968484;28;94982;-65
2023/12/25 08:33:48;;;;;;;9.38;1.73;;;;;;;;;;4974206;28;93814;-66
2023/12/25 08:36:14;;;;;;;11.43;2.10;;;;;;;;;;4971321;28;92517;-65
2023/12/25 08:38:41;;;;;;;6.78;1.77;;;;;;;;;;4971411;28;93159;-65
2023/12/25 08:41:07;;;;;;;7.70;1.35;;;;;;;;;;4974260;28;93406;-65
2023/12/25 08:43:33;;;;;;;9.65;1.17;;;;;;;;;;4969041;28;92385;-65
2023/12/25 08:46:00;;;;;;;8.48;1.70;;;;;;;;;;4970613;28;93392;-66
2023/12/25 08:48:26;;;;;;;8.57;1.30;;;;;;;;;;4976810;28;93642;-66
2023/12/25 08:50:54;;;;;;;10.10;1.33;;;;;;;;;;4973763;28;92796;-66
2023/12/25 08:53:21;;;;;;;6.68;1.13;;;;;;;;;;4966374;28;93442;-65
2023/12/25 08:55:47;;;;;;;7.55;1.75;;;;;;;;;;4965188;28;94792;-65
2023/12/25 08:58:14;;;;;;;7.35;1.30;;;;;;;;;;4969733;28;95781;-65
2023/12/25 09:00:40;;;;;;;6.18;1.23;;;;;;;;;;4973246;28;93491;-65
2023/12/25 09:03:06;;;;;;;8.43;1.20;;;;;;;;;;4970318;28;92492;-65
2023/12/25 09:05:33;;;;;;;5.57;1.20;;;;;;;;;;4966521;28;94629;-65
2023/12/25 09:08:00;;;;;;;5.57;1.30;;;;;;;;;;4966207;28;93666;-64
2023/12/25 09:10:26;;;;;;;8.27;1.40;;;;;;;;;;4974517;28;92328;-65
2023/12/25 09:12:52;;;;;;;1.95;0.70;;;;;;;;;;4966877;28;92706;-64
2023/12/25 09:15:19;;;;;;;14.70;2.00;;;;;;;;;;4966624;28;92351;-65
2023/12/25 09:17:46;;;;;;;8.60;1.13;;;;;;;;;;4971336;28;93131;-65
2023/12/25 09:20:12;;;;;;;10.45;1.40;;;;;;;;;;4968444;28;95832;-65
2023/12/25 09:22:39;;;;;;;11.60;1.70;;;;;;;;;;4970106;28;92526;-65
2023/12/25 09:25:05;;;;;;;8.20;1.30;;;;;;;;;;4972993;28;93496;-65
2023/12/25 09:27:32;;;;;;;5.40;1.20;;;;;;;;;;4964455;28;93580;-65
2023/12/25 09:29:58;;;;;;;6.57;1.23;;;;;;;;;;4969852;28;92534;-65
2023/12/25 09:32:27;;;;;;;4.97;1.33;;;;;;;;;;4969147;28;93508;-65
2023/12/25 09:34:53;;;;;;;5.18;1.02;;;;;;;;;;4970301;28;92812;-65
2023/12/25 09:37:23;;;;;;;6.57;1.60;;;;;;;;;;4974920;28;94490;-65
2023/12/25 09:39:49;;;;;;;3.38;0.95;;;;;;;;;;4969262;28;93520;-65
2023/12/25 09:42:17;;;;;;;2.60;1.08;;;;;;;;;;4967831;28;92529;-64
2023/12/25 09:44:44;;;;;;;5.07;1.25;;;;;;;;;;4971700;28;94900;-64
2023/12/25 09:47:11;;;;;;;3.47;1.30;;;;;;;;;;4970934;28;93660;-64
2023/12/25 09:49:38;;;;;;;2.72;1.10;;;;;;;;;;4969919;28;92596;-65
2023/12/25 09:52:05;;;;;;;17.23;2.22;;;;;;;;;;4968642;28;93000;-66
2023/12/25 09:54:31;;;;;;;4.50;1.10;;;;;;;;;;4970636;28;94000;-66
2023/12/25 09:56:58;;;;;;;9.65;1.55;;;;;;;;;;4972056;28;93580;-66
2023/12/25 09:59:27;;;;;;;6.75;1.23;;;;;;;;;;4964827;28;93624;-66
2023/12/25 10:01:55;;;;;;;6.07;1.33;;;;;;;;;;4966570;28;91764;-65
2023/12/25 10:04:22;;;;;;;4.90;1.10;;;;;;;;;;4966224;28;92422;-65
2023/12/25 10:06:49;;;;;;;6.30;1.23;;;;;;;;;;4973370;28;93582;-64
2023/12/25 10:09:16;;;;;;;5.00;0.93;;;;;;;;;;4966876;28;94991;-66
2023/12/25 10:11:42;;;;;;;7.50;1.30;;;;;;;;;;4965215;28;95530;-66
2023/12/25 10:14:08;;;;;;;2.75;1.00;;;;;;;;;;4974985;28;93524;-66
2023/12/25 10:16:35;;;;;;;6.97;1.88;;;;;;;;;;4968432;28;93464;-66
2023/12/25 10:19:01;;;;;;;7.80;1.15;;;;;;;;;;4969511;28;93436;-66
2023/12/25 10:21:40;;;;;;;5.65;1.52;;;;;;;;;;4962165;28;92457;-67
2023/12/25 10:24:10;;;;;;;6.80;1.33;;;;;;;;;;4978726;28;92987;-67
2023/12/25 10:26:36;;;;;;;;;;;;;;;;;;4971898;28;93016;-66
2023/12/25 10:29:09;;;;;;;4.05;1.13;;;;;;;;;;4969328;28;118156;-66
2023/12/25 10:31:39;;;;;;;9.65;1.65;;;;;;;;;;4968629;28;92882;-67
2023/12/25 10:34:05;;;;;;;2.92;1.10;;;;;;;;;;4967796;28;95974;-66
2023/12/25 10:36:32;;;;;;;5.15;1.17;;;;;;;;;;4973340;28;92580;-66
2023/12/25 10:38:59;;;;;;;4.65;1.23;;;;;;;;;;4966664;28;93465;-66
2023/12/25 10:41:28;;;;;;;5.75;1.63;;;;;;;;;;4965774;28;92469;-67
2023/12/25 10:43:55;;;;;;;5.72;1.35;;;;;;;;;;4967821;28;93131;-67
2023/12/25 10:46:25;;;;;;;8.38;1.60;;;;;;;;;;4968261;28;93824;-67
2023/12/25 10:48:52;;;;;;;7.28;1.40;;;;;;;;;;4970050;28;92606;-67
2023/12/25 10:51:26;;;;;;;7.65;1.13;;;;;;;;;;4968003;28;93099;-66
2023/12/25 10:53:55;;;;;;;8.93;1.73;;;;;;;;;;4964966;28;93394;-66
2023/12/25 10:56:22;;;;;;;8.43;1.85;;;;;;;;;;4969084;28;92963;-66
2023/12/25 10:58:49;;;;;;;2.50;1.45;;;;;;;;;;4969475;28;94832;-66
2023/12/25 11:01:19;;;;;;;4.40;1.30;;;;;;;;;;4971261;28;92415;-66
2023/12/25 11:03:45;;;;;;;8.82;1.92;;;;;;;;;;4971566;28;93690;-65
2023/12/25 11:06:12;;;;;;;5.38;1.40;;;;;;;;;;4969871;28;93509;-66
2023/12/25 11:08:40;;;;;;;7.00;1.40;;;;;;;;;;4968576;28;92468;-66
2023/12/25 11:11:06;;;;;;;4.97;1.50;;;;;;;;;;4968382;28;93346;-66
2023/12/25 11:13:33;;;;;;;5.97;1.10;;;;;;;;;;4968777;28;93718;-66
2023/12/25 11:15:59;;;;;;;4.80;1.25;;;;;;;;;;4971406;28;92417;-66
2023/12/25 11:18:26;;;;;;;3.70;1.00;;;;;;;;;;4966844;28;93482;-65
2023/12/25 11:21:09;;;;;;;7.35;1.00;;;;;;;;;;4966074;28;94511;-66
2023/12/25 11:23:36;;;;;;;5.63;1.17;;;;;;;;;;4963554;28;94815;-67
2023/12/25 11:26:05;;;;;;;7.78;1.48;;;;;;;;;;4969405;28;93511;-66
2023/12/25 11:28:34;;;;;;;3.80;1.35;;;;;;;;;;4971364;28;92554;-66
2023/12/25 11:31:00;;;;;;;3.88;1.20;;;;;;;;;;4965122;28;94096;-66
2023/12/25 11:33:27;;;;;;;5.57;1.15;;;;;;;;;;4971179;28;93606;-66
2023/12/25 11:35:54;;;;;;;3.13;1.40;;;;;;;;;;4957161;28;92544;-65
2023/12/25 11:38:20;;;;;;;6.00;1.20;;;;;;;;;;4969351;28;93551;-66
2023/12/25 11:40:49;;;;;;;7.43;1.33;;;;;;;;;;4971700;28;92671;-65
2023/12/25 11:43:18;;;;;;;4.93;1.13;;;;;;;;;;4964677;28;92652;-66
2023/12/25 11:45:46;;;;;;;4.72;1.40;;;;;;;;;;4970754;28;93426;-64
2023/12/25 11:48:15;;;;;;;5.70;1.42;;;;;;;;;;4965995;28;94848;-64
2023/12/25 11:50:43;;;;;;;2.92;1.00;;;;;;;;;;4973828;28;96787;-64
2023/12/25 11:53:09;;;;;;;10.18;1.73;;;;;;;;;;4970649;28;94725;-66
2023/12/25 11:55:36;;;;;;;4.82;1.27;;;;;;;;;;4967488;28;92587;-64
2023/12/25 11:58:02;;;;;;;4.07;1.30;;;;;;;;;;4974239;28;92515;-64
2023/12/25 12:00:32;;;;;;;4.43;1.40;;;;;;;;;;4970089;28;93896;-64
2023/12/25 12:02:59;;;;;;;2.97;0.98;;;;;;;;;;4976826;28;92458;-64
2023/12/25 12:05:27;;;;;;;6.53;1.25;;;;;;;;;;4974555;28;92716;-65
2023/12/25 12:07:54;;;;;;;6.22;1.35;;;;;;;;;;4971304;28;92546;-64
2023/12/25 12:10:20;;;;;;;8.07;1.42;;;;;;;;;;4971464;28;93344;-65
2023/12/25 12:12:47;;;;;;;6.28;1.25;;;;;;;;;;4968493;28;95809;-66
2023/12/25 12:15:13;;;;;;;4.32;1.40;;;;;;;;;;4974141;28;92451;-65
2023/12/25 12:17:40;;;;;;;6.22;1.10;;;;;;;;;;4967354;28;93174;-64
2023/12/25 12:20:06;;;;;;;9.80;1.40;;;;;;;;;;4966654;28;93378;-64
2023/12/25 12:22:33;;;;;;;8.40;2.38;;;;;;;;;;4970744;28;92473;-64
2023/12/25 12:25:12;;;;;;;8.27;1.50;;;;;;;;;;4973758;28;93092;-64
2023/12/25 12:27:39;;;;;;;5.20;1.80;;;;;;;;;;4972005;28;92617;-64
2023/12/25 12:30:08;;;;;;;5.60;1.15;;;;;;;;;;4970919;28;93131;-64
2023/12/25 12:32:36;;;;;;;8.17;1.20;;;;;;;;;;4964419;28;93641;-64
2023/12/25 12:35:03;;;;;;;7.25;1.77;;;;;;;;;;4973435;28;92464;-64
2023/12/25 12:37:30;;;;;;;7.20;1.42;;;;;;;;;;4969474;28;94974;-64
2023/12/25 12:40:03;;;;;;;5.72;1.67;;;;;;;;;;4967631;28;93451;-64
2023/12/25 12:42:33;;;;;;;8.32;1.80;;;;;;;;;;4968125;28;92494;-64
2023/12/25 12:45:00;;;;;;;7.03;1.43;;;;;;;;;;4970771;28;93599;-65
2023/12/25 12:47:26;;;;;;;6.93;1.20;;;;;;;;;;4969393;28;93594;-64
2023/12/25 12:49:53;;;;;;;11.57;2.00;;;;;;;;;;4974702;28;94247;-64
2023/12/25 12:52:19;;;;;;;7.38;1.50;;;;;;;;;;4970496;28;92562;-65
2023/12/25 12:54:46;;;;;;;8.18;2.05;;;;;;;;;;4970536;28;91775;-64
2023/12/25 12:57:13;;;;;;;5.03;1.30;;;;;;;;;;4971091;28;92449;-66
2023/12/25 12:59:40;;;;;;;5.90;1.60;;;;;;;;;;4969877;28;93826;-67
2023/12/25 13:02:06;;;;;;;4.60;1.35;;;;;;;;;;4969631;28;94891;-66
2023/12/25 13:04:33;;;;;;;7.43;1.40;;;;;;;;;;4965673;28;95513;-67
2023/12/25 13:06:59;;;;;;;4.35;1.17;;;;;;;;;;4975412;28;94048;-66
2023/12/25 13:09:26;;;;;;;5.97;1.17;;;;;;;;;;4977746;28;92604;-66
2023/12/25 13:11:52;;;;;;;5.25;1.20;;;;;;;;;;4972197;28;94476;-66
2023/12/25 13:14:19;;;;;;;10.23;1.85;;;;;;;;;;4973629;28;92442;-66
2023/12/25 13:16:45;;;;;;;6.15;1.33;;;;;;;;;;4966285;28;93453;-66
2023/12/25 13:19:11;;;;;;;4.43;1.50;;;;;;;;;;4965952;28;92822;-67
2023/12/25 13:21:38;;;;;;;8.30;1.67;;;;;;;;;;4966495;28;93956;-67
2023/12/25 13:24:05;;;;;;;8.50;1.38;;;;;;;;;;4970565;28;93167;-67
2023/12/25 13:26:32;;;;;;;5.45;1.30;;;;;;;;;;4969012;28;95977;-66
2023/12/25 13:28:58;;;;;;;9.00;1.35;;;;;;;;;;4971917;28;92523;-66
2023/12/25 13:31:25;;;;;;;4.30;1.10;;;;;;;;;;4974359;28;93147;-66
2023/12/25 13:33:52;;;;;;;8.85;1.50;;;;;;;;;;4970510;28;92489;-67
2023/12/25 13:36:18;;;;;;;7.65;1.80;;;;;;;;;;4967969;28;93207;-67
2023/12/25 13:38:45;;;;;;;8.70;1.80;;;;;;;;;;4971841;28;93734;-66
2023/12/25 13:41:11;;;;;;;3.85;1.33;;;;;;;;;;4969423;28;92540;-66
2023/12/25 13:43:38;;;;;;;10.65;1.67;;;;;;;;;;4968034;28;93289;-67
2023/12/25 13:46:04;;;;;;;6.78;1.30;;;;;;;;;;4972371;28;93412;-66
2023/12/25 13:48:31;;;;;;;3.80;1.45;;;;;;;;;;4972143;28;92554;-67
2023/12/25 13:50:58;;;;;;;8.15;1.83;;;;;;;;;;4974329;28;95004;-67
2023/12/25 13:53:24;;;;;;;4.63;1.58;;;;;;;;;;4967769;28;92902;-66
2023/12/25 13:55:51;;;;;;;3.20;1.40;;;;;;;;;;4969461;28;93104;-66
2023/12/25 13:58:17;;;;;;;4.60;1.25;;;;;;;;;;4965387;28;93412;-66
2023/12/25 14:00:44;;;;;;;6.05;1.73;;;;;;;;;;4972101;28;92850;-65
2023/12/25 14:03:10;;;;;;;7.57;1.92;;;;;;;;;;4969119;28;94240;-67
2023/12/25 14:05:37;;;;;;;4.13;1.42;;;;;;;;;;4968923;28;94979;-65
2023/12/25 14:08:03;;;;;;;7.25;1.60;;;;;;;;;;4970489;28;91752;-65
2023/12/25 14:10:30;;;;;;;11.50;2.60;;;;;;;;;;4969278;28;92699;-66
2023/12/25 14:12:57;;;;;;;7.35;2.05;;;;;;;;;;4971014;28;94931;-66
2023/12/25 14:15:23;;;;;;;5.25;1.30;;;;;;;;;;4964158;28;94985;-66
2023/12/25 14:17:51;;;;;;;4.20;1.20;;;;;;;;;;4972587;28;93751;-66
2023/12/25 14:20:19;;;;;;;7.82;2.25;;;;;;;;;;4964457;28;92396;-66
2023/12/25 14:22:45;;;;;;;7.55;1.52;;;;;;;;;;4969879;28;93100;-66
2023/12/25 14:25:15;;;;;;;7.80;1.65;;;;;;;;;;4968766;28;94603;-69
2023/12/25 14:27:42;;;;;;;10.00;1.77;;;;;;;;;;4965073;28;92526;-66
2023/12/25 14:30:08;;;;;;;5.45;1.17;;;;;;;;;;4969371;28;95631;-65
2023/12/25 14:32:36;;;;;;;9.20;1.95;;;;;;;;;;4973301;28;92823;-65
2023/12/25 14:35:07;;;;;;;5.05;1.50;;;;;;;;;;4971067;28;92816;-65